createdAt,value
2018-12-14T00:02:29.943Z,1.91
2018-12-14T00:05:18.138Z,1.92
2018-12-14T00:08:05.633Z,1.92
2018-12-14T00:10:52.727Z,1.95
2018-12-14T00:13:40.079Z,1.90
2018-12-14T00:16:27.964Z,1.89
2018-12-14T00:19:15.890Z,1.86
2018-12-14T00:22:05.234Z,1.85
2018-12-14T00:24:52.631Z,2.61
2018-12-14T00:27:40.797Z,2.10
2018-12-14T00:30:28.654Z,2.00
2018-12-14T00:33:21.490Z,1.97
2018-12-14T00:36:18.112Z,1.93
2018-12-14T00:39:05.793Z,1.93
2018-12-14T00:41:52.684Z,1.91
2018-12-14T00:44:40.429Z,1.90
2018-12-14T00:47:27.669Z,1.91
2018-12-14T00:50:22.454Z,1.93
2018-12-14T00:53:12.845Z,1.90
2018-12-14T00:56:04.310Z,1.92
2018-12-14T00:58:51.959Z,1.85
2018-12-14T01:01:41.271Z,1.87
2018-12-14T01:04:28.838Z,1.84
2018-12-14T01:07:16.906Z,1.86
2018-12-14T01:10:07.970Z,1.90
2018-12-14T01:12:55.604Z,1.88
2018-12-14T01:15:42.675Z,2.64
2018-12-14T01:18:29.687Z,2.16
2018-12-14T01:21:16.475Z,2.05
2018-12-14T01:24:04.531Z,2.03
2018-12-14T01:26:52.691Z,1.96
2018-12-14T01:29:41.074Z,1.96
2018-12-14T01:32:28.573Z,1.97
2018-12-14T01:35:15.389Z,2.70
2018-12-14T01:38:02.672Z,2.13
2018-12-14T01:40:50.031Z,2.08
2018-12-14T01:43:36.905Z,2.03
2018-12-14T01:46:23.654Z,2.02
2018-12-14T01:49:11.243Z,2.78
2018-12-14T01:51:58.706Z,2.27
2018-12-14T01:54:45.922Z,2.20
2018-12-14T01:57:33.377Z,2.14
2018-12-14T02:00:20.867Z,2.11
2018-12-14T02:03:08.472Z,2.11
2018-12-14T02:05:55.805Z,2.03
2018-12-14T02:08:43.636Z,2.01
2018-12-14T02:11:30.794Z,2.02
2018-12-14T02:14:18.212Z,2.00
2018-12-14T02:17:05.473Z,1.94
2018-12-14T02:19:52.980Z,1.91
2018-12-14T02:22:40.204Z,2.68
2018-12-14T02:25:27.121Z,2.22
2018-12-14T02:28:16.193Z,2.17
2018-12-14T02:31:04.245Z,2.15
2018-12-14T02:33:52.253Z,2.12
2018-12-14T02:36:39.798Z,2.05
2018-12-14T02:39:26.846Z,2.04
2018-12-14T02:42:19.268Z,2.74
2018-12-14T02:45:16.597Z,2.25
2018-12-14T02:48:04.655Z,2.10
2018-12-14T02:54:06.976Z,1.96
2018-12-14T02:56:54.726Z,1.95
2018-12-14T02:59:45.433Z,1.92
2018-12-14T03:02:34.616Z,1.92
2018-12-14T03:05:22.225Z,1.92
2018-12-14T03:08:09.841Z,1.88
2018-12-14T03:10:57.900Z,1.85
2018-12-14T03:13:47.365Z,2.56
2018-12-14T03:16:35.058Z,2.06
2018-12-14T03:19:26.430Z,1.99
2018-12-14T03:22:17.210Z,1.95
2018-12-14T03:25:04.612Z,1.87
2018-12-14T03:27:51.821Z,1.84
2018-12-14T03:30:39.672Z,1.83
2018-12-14T03:33:29.404Z,1.79
2018-12-14T03:36:27.707Z,2.53
2018-12-14T03:39:14.282Z,1.95
2018-12-14T03:42:04.580Z,1.82
2018-12-14T03:44:51.752Z,1.78
2018-12-14T03:47:38.663Z,1.79
2018-12-14T03:50:25.681Z,1.81
2018-12-14T03:53:13.147Z,1.81
2018-12-14T03:56:00.596Z,1.83
2018-12-14T03:58:47.489Z,1.81
2018-12-14T04:01:35.066Z,1.80
2018-12-14T04:04:22.095Z,1.81
2018-12-14T04:07:09.909Z,1.81
2018-12-14T04:10:00.301Z,1.76
2018-12-14T04:12:47.828Z,1.72
2018-12-14T04:15:36.148Z,1.68
2018-12-14T04:18:23.593Z,1.64
2018-12-14T04:21:14.258Z,1.60
2018-12-14T04:24:01.257Z,1.57
2018-12-14T04:26:51.278Z,1.59
2018-12-14T04:29:40.147Z,1.59
2018-12-14T04:32:26.782Z,1.59
2018-12-14T04:35:13.592Z,1.60
2018-12-14T04:38:01.230Z,1.59
2018-12-14T04:40:53.719Z,2.32
2018-12-14T04:43:41.133Z,1.82
2018-12-14T04:46:27.970Z,2.51
2018-12-14T04:49:16.721Z,1.97
2018-12-14T04:52:04.238Z,1.89
2018-12-14T04:54:54.088Z,1.86
2018-12-14T04:57:42.525Z,1.84
2018-12-14T05:00:29.873Z,1.82
2018-12-14T05:03:21.257Z,1.78
2018-12-14T05:06:10.256Z,1.77
2018-12-14T05:09:00.764Z,2.52
2018-12-14T05:11:48.369Z,2.02
2018-12-14T05:14:35.395Z,1.90
2018-12-14T05:17:22.365Z,1.87
2018-12-14T05:20:09.856Z,1.83
2018-12-14T05:23:06.152Z,1.74
2018-12-14T05:25:53.783Z,1.73
2018-12-14T05:28:41.004Z,1.71
2018-12-14T05:31:28.707Z,1.72
2018-12-14T05:34:16.863Z,1.72
2018-12-14T05:37:03.783Z,1.71
2018-12-14T05:39:53.422Z,1.70
2018-12-14T05:43:02.374Z,1.70
2018-12-14T05:45:43.166Z,1.66
2018-12-14T05:48:32.022Z,1.58
2018-12-14T05:51:19.214Z,1.59
2018-12-14T05:54:06.221Z,1.60
2018-12-14T05:56:53.603Z,1.62
2018-12-14T05:59:56.790Z,2.38
2018-12-14T06:02:43.779Z,1.88
2018-12-14T06:05:31.060Z,1.80
2018-12-14T06:08:18.812Z,1.78
2018-12-14T06:11:06.222Z,1.77
2018-12-14T06:14:05.075Z,1.75
2018-12-14T06:16:53.447Z,1.72
2018-12-14T06:19:40.710Z,1.71
2018-12-14T06:22:28.012Z,1.71
2018-12-14T06:25:15.983Z,1.71
2018-12-14T06:28:05.364Z,1.71
2018-12-14T06:30:54.997Z,1.71
2018-12-14T06:33:45.991Z,1.71
2018-12-14T06:36:33.206Z,1.71
2018-12-14T06:39:20.093Z,1.72
2018-12-14T06:42:08.392Z,1.72
2018-12-14T06:44:56.155Z,2.49
2018-12-14T06:47:45.427Z,1.98
2018-12-14T06:50:34.106Z,1.89
2018-12-14T06:53:21.731Z,1.81
2018-12-14T06:56:09.762Z,1.78
2018-12-14T06:58:57.041Z,1.76
2018-12-14T07:01:44.261Z,1.75
2018-12-14T07:04:32.384Z,1.70
2018-12-14T07:07:19.795Z,1.68
2018-12-14T07:10:07.881Z,1.67
2018-12-14T07:12:56.908Z,1.67
2018-12-14T07:15:44.164Z,1.66
2018-12-14T07:18:31.502Z,1.66
2018-12-14T07:21:20.028Z,1.67
2018-12-14T07:27:13.752Z,1.68
2018-12-14T07:30:01.401Z,2.43
2018-12-14T07:32:50.123Z,1.96
2018-12-14T07:35:41.982Z,1.86
2018-12-14T07:38:25.990Z,1.85
2018-12-14T07:41:13.835Z,1.83
2018-12-14T07:44:01.465Z,1.80
2018-12-14T07:46:48.934Z,1.79
2018-12-14T07:49:37.731Z,1.78
2018-12-14T07:52:26.717Z,2.54
2018-12-14T07:55:14.464Z,2.05
2018-12-14T07:58:01.613Z,1.98
2018-12-14T08:03:54.399Z,1.93
2018-12-14T08:06:41.005Z,1.92
2018-12-14T08:09:28.636Z,1.93
2018-12-14T08:12:19.079Z,1.94
2018-12-14T08:15:13.731Z,1.96
2018-12-14T08:21:09.300Z,1.97
2018-12-14T08:23:56.661Z,2.78
2018-12-14T08:26:43.839Z,2.30
2018-12-14T08:29:31.287Z,2.23
2018-12-14T08:32:20.422Z,2.21
2018-12-14T08:35:10.514Z,2.23
2018-12-14T08:37:57.114Z,2.23
2018-12-14T08:40:43.956Z,2.24
2018-12-14T08:43:30.934Z,2.27
2018-12-14T08:46:18.181Z,2.27
2018-12-14T08:49:05.004Z,2.29
2018-12-14T08:51:52.297Z,2.31
2018-12-14T08:54:39.427Z,2.35
2018-12-14T08:57:26.461Z,2.31
2018-12-14T09:00:13.597Z,2.32
2018-12-14T09:03:01.960Z,2.31
2018-12-14T09:05:49.379Z,2.33
2018-12-14T09:08:36.270Z,2.32
2018-12-14T09:11:24.436Z,2.35
2018-12-14T09:14:12.120Z,2.38
2018-12-14T09:16:59.029Z,2.39
2018-12-14T09:19:46.192Z,2.39
2018-12-14T09:22:34.044Z,2.42
2018-12-14T09:28:27.172Z,2.47
2018-12-14T09:31:18.174Z,2.51
2018-12-14T09:34:08.344Z,2.54
2018-12-14T09:36:55.185Z,2.54
2018-12-14T09:39:42.953Z,2.54
2018-12-14T09:42:29.890Z,2.57
2018-12-14T09:45:16.751Z,2.55
2018-12-14T09:48:04.459Z,3.45
2018-12-14T09:51:00.783Z,2.93
2018-12-14T09:53:49.197Z,3.76
2018-12-14T09:56:37.070Z,3.14
2018-12-14T09:59:24.078Z,3.05
2018-12-14T10:02:11.219Z,2.93
2018-12-14T10:04:58.576Z,2.80
2018-12-14T10:07:46.993Z,2.72
2018-12-14T10:16:48.534Z,2.69
2018-12-14T10:19:35.881Z,2.71
2018-12-14T10:22:25.591Z,2.75
2018-12-14T10:25:12.828Z,2.71
2018-12-14T10:27:59.989Z,2.78
2018-12-14T10:30:47.004Z,2.82
2018-12-14T10:33:34.329Z,2.91
2018-12-14T10:36:21.719Z,2.99
2018-12-14T10:39:08.809Z,2.98
2018-12-14T10:41:56.144Z,3.01
2018-12-14T10:44:43.924Z,3.05
2018-12-14T10:47:30.783Z,3.99
2018-12-14T10:50:18.007Z,3.44
2018-12-14T10:53:05.490Z,3.36
2018-12-14T10:55:55.600Z,3.34
2018-12-14T10:58:42.891Z,3.28
2018-12-14T11:01:50.829Z,3.31
2018-12-14T11:04:38.701Z,3.34
2018-12-14T11:07:27.087Z,3.37
2018-12-14T11:10:14.344Z,3.40
2018-12-14T11:13:01.990Z,3.46
2018-12-14T11:15:53.899Z,3.43
2018-12-14T11:18:41.133Z,3.42
2018-12-14T11:24:37.372Z,3.46
2018-12-14T11:27:28.219Z,3.41
2018-12-14T11:30:15.270Z,3.44
2018-12-14T11:33:02.386Z,3.45
2018-12-14T11:35:58.232Z,4.35
2018-12-14T11:38:51.888Z,3.72
2018-12-14T11:41:38.845Z,3.68
2018-12-14T11:44:27.046Z,3.62
2018-12-14T11:47:18.300Z,3.60
2018-12-14T11:50:20.101Z,3.60
2018-12-14T11:53:08.140Z,4.58
2018-12-14T11:55:55.468Z,3.93
2018-12-14T11:58:42.965Z,3.80
2018-12-14T12:01:32.278Z,3.72
2018-12-14T12:04:19.177Z,4.64
2018-12-14T12:07:06.112Z,3.98
2018-12-14T12:09:59.885Z,3.86
2018-12-14T12:12:57.189Z,4.69
2018-12-14T12:15:44.786Z,4.81
2018-12-14T12:18:31.771Z,4.05
2018-12-14T12:21:19.259Z,4.78
2018-12-14T12:27:13.545Z,4.07
2018-12-14T12:30:01.074Z,3.85
2018-12-14T12:32:48.401Z,3.76
2018-12-14T12:35:35.369Z,3.69
2018-12-14T12:38:24.256Z,3.63
2018-12-14T12:41:13.847Z,3.57
2018-12-14T12:44:00.904Z,3.53
2018-12-14T12:46:47.968Z,3.50
2018-12-14T12:49:35.494Z,3.42
2018-12-14T12:52:22.291Z,3.40
2018-12-14T12:55:10.467Z,3.38
2018-12-14T12:58:05.280Z,3.36
2018-12-14T13:03:59.033Z,3.27
2018-12-14T13:06:46.507Z,3.27
2018-12-14T13:09:33.837Z,4.14
2018-12-14T13:12:21.218Z,3.53
2018-12-14T13:15:08.397Z,3.28
2018-12-14T13:17:55.189Z,3.25
2018-12-14T13:20:42.136Z,3.18
2018-12-14T13:23:29.572Z,4.02
2018-12-14T13:26:16.523Z,3.42
2018-12-14T13:29:03.811Z,4.18
2018-12-14T13:31:50.984Z,3.56
2018-12-14T13:34:38.708Z,3.38
2018-12-14T13:37:25.725Z,3.29
2018-12-14T13:40:14.193Z,3.22
2018-12-14T13:43:01.342Z,4.00
2018-12-14T13:45:48.655Z,3.29
2018-12-14T13:48:36.743Z,3.16
2018-12-14T13:51:24.052Z,3.09
2018-12-14T13:54:11.122Z,3.03
2018-12-14T13:57:02.600Z,2.92
2018-12-14T13:59:49.789Z,2.88
2018-12-14T14:02:37.032Z,2.86
2018-12-14T14:05:26.095Z,2.83
2018-12-14T14:08:13.111Z,2.81
2018-12-14T14:11:00.525Z,3.61
2018-12-14T14:16:54.940Z,2.81
2018-12-14T14:19:42.508Z,2.73
2018-12-14T14:22:38.257Z,2.68
2018-12-14T14:25:25.765Z,2.65
2018-12-14T14:28:13.468Z,2.60
2018-12-14T14:31:01.191Z,2.51
2018-12-14T14:33:54.606Z,2.44
2018-12-14T14:36:47.067Z,3.16
2018-12-14T14:39:34.920Z,2.56
2018-12-14T14:42:24.269Z,3.26
2018-12-14T14:45:13.543Z,2.67
2018-12-14T14:48:01.054Z,2.54
2018-12-14T14:50:49.029Z,2.44
2018-12-14T14:53:37.566Z,2.41
2018-12-14T14:56:25.253Z,2.35
2018-12-14T14:59:12.601Z,3.08
2018-12-14T15:02:03.987Z,2.48
2018-12-14T15:04:54.124Z,2.34
2018-12-14T15:07:49.461Z,2.26
2018-12-14T15:10:40.851Z,2.20
2018-12-14T15:13:28.132Z,2.16
2018-12-14T15:16:17.691Z,2.15
2018-12-14T15:19:04.991Z,2.91
2018-12-14T15:21:54.964Z,2.40
2018-12-14T15:24:41.914Z,2.20
2018-12-14T15:27:29.906Z,2.97
2018-12-14T15:30:16.633Z,2.43
2018-12-14T15:33:04.099Z,3.10
2018-12-14T15:35:52.126Z,2.52
2018-12-14T15:38:40.474Z,2.32
2018-12-14T15:41:28.525Z,2.27
2018-12-14T15:47:26.057Z,2.42
2018-12-14T15:50:12.954Z,2.26
2018-12-14T15:53:02.933Z,2.09
2018-12-14T15:55:50.222Z,2.04
2018-12-14T15:58:37.478Z,1.99
2018-12-14T16:01:24.690Z,1.97
2018-12-14T16:07:17.845Z,2.95
2018-12-14T16:10:05.515Z,2.29
2018-12-14T16:12:52.991Z,2.14
2018-12-14T16:15:40.447Z,2.00
2018-12-14T16:18:37.589Z,1.92
2018-12-14T16:21:27.012Z,1.86
2018-12-14T16:24:14.855Z,1.86
2018-12-14T16:27:02.208Z,1.85
2018-12-14T16:29:50.594Z,1.86
2018-12-14T16:32:37.785Z,1.87
2018-12-14T16:35:25.655Z,1.86
2018-12-14T16:38:13.896Z,1.87
2018-12-14T16:41:05.809Z,1.84
2018-12-14T16:43:53.307Z,1.82
2018-12-14T16:46:45.652Z,1.80
2018-12-14T16:49:34.587Z,1.82
2018-12-14T16:52:22.226Z,1.83
2018-12-14T16:55:12.208Z,1.84
2018-12-14T16:57:59.360Z,1.84
2018-12-14T17:00:46.825Z,1.83
2018-12-14T17:03:34.673Z,2.56
2018-12-14T17:06:21.934Z,2.06
2018-12-14T17:09:08.894Z,2.72
2018-12-14T17:11:55.880Z,2.18
2018-12-14T17:14:43.379Z,2.07
2018-12-14T17:17:32.039Z,1.99
2018-12-14T17:20:19.126Z,1.95
2018-12-14T17:23:06.980Z,1.91
2018-12-14T17:25:54.701Z,1.86
2018-12-14T17:28:45.364Z,1.85
2018-12-14T17:31:32.558Z,1.83
2018-12-14T17:34:19.809Z,1.82
2018-12-14T17:37:07.109Z,1.80
2018-12-14T17:39:54.899Z,1.80
2018-12-14T17:42:41.778Z,1.77
2018-12-14T17:45:28.941Z,1.77
2018-12-14T17:48:18.746Z,1.76
2018-12-14T17:51:06.142Z,1.75
2018-12-14T17:53:56.024Z,1.74
2018-12-14T17:56:44.366Z,1.74
2018-12-14T17:59:31.709Z,1.73
2018-12-14T18:02:22.254Z,1.69
2018-12-14T18:05:09.525Z,1.69
2018-12-14T18:07:56.820Z,1.68
2018-12-14T18:10:44.655Z,1.68
2018-12-14T18:13:32.231Z,1.68
2018-12-14T18:16:19.616Z,1.69
2018-12-14T18:19:08.151Z,1.67
2018-12-14T18:21:57.826Z,1.66
2018-12-14T18:24:45.214Z,1.66
2018-12-14T18:27:33.194Z,1.67
2018-12-14T18:30:24.992Z,1.64
2018-12-14T18:33:14.286Z,1.65
2018-12-14T18:42:31.996Z,1.62
2018-12-14T18:45:21.373Z,2.38
2018-12-14T18:48:09.180Z,1.88
2018-12-14T18:54:07.385Z,1.75
2018-12-14T18:57:06.163Z,1.73
2018-12-14T18:59:53.258Z,1.69
2018-12-14T19:02:43.233Z,1.70
2018-12-14T19:05:32.882Z,1.69
2018-12-14T19:08:21.456Z,1.70
2018-12-14T19:11:08.988Z,1.69
2018-12-14T19:13:55.968Z,1.69
2018-12-14T19:16:45.302Z,1.69
2018-12-14T19:19:34.517Z,1.70
2018-12-14T19:22:26.375Z,1.69
2018-12-14T19:25:14.034Z,1.70
2018-12-14T19:28:01.766Z,2.45
2018-12-14T19:30:49.472Z,1.97
2018-12-14T19:33:38.578Z,1.88
2018-12-14T19:36:29.111Z,1.85
2018-12-14T19:39:16.517Z,1.81
2018-12-14T19:42:06.689Z,2.56
2018-12-14T19:44:56.405Z,2.04
2018-12-14T19:47:45.106Z,1.95
2018-12-14T19:50:32.938Z,1.91
2018-12-14T19:53:22.280Z,1.87
2018-12-14T19:56:09.807Z,1.86
2018-12-14T19:58:59.297Z,1.83
2018-12-14T20:01:55.089Z,1.81
2018-12-14T20:04:48.278Z,1.78
2018-12-14T20:07:36.897Z,1.77
2018-12-14T20:10:24.145Z,1.76
2018-12-14T20:13:12.789Z,1.77
2018-12-14T20:16:01.569Z,1.75
2018-12-14T20:19:02.840Z,1.75
2018-12-14T20:21:50.030Z,1.73
2018-12-14T20:24:37.133Z,1.74
2018-12-14T20:27:25.036Z,1.71
2018-12-14T20:30:14.923Z,1.71
2018-12-14T20:33:03.147Z,1.71
2018-12-14T20:35:54.387Z,2.46
2018-12-14T20:38:43.696Z,1.94
2018-12-14T20:41:31.378Z,1.83
2018-12-14T20:44:18.322Z,1.77
2018-12-14T20:47:05.673Z,1.76
2018-12-14T20:49:55.579Z,1.74
2018-12-14T20:52:45.339Z,1.72
2018-12-14T20:55:32.045Z,1.70
2018-12-14T20:58:19.592Z,1.67
2018-12-14T21:01:07.250Z,1.64
2018-12-14T21:03:54.767Z,1.59
2018-12-14T21:06:41.609Z,1.59
2018-12-14T21:09:28.711Z,2.33
2018-12-14T21:12:16.197Z,1.84
2018-12-14T21:15:13.764Z,1.76
2018-12-14T21:18:01.560Z,1.71
2018-12-14T21:20:48.425Z,1.69
2018-12-14T21:23:37.580Z,1.68
2018-12-14T21:26:27.047Z,2.44
2018-12-14T21:29:16.147Z,1.90
2018-12-14T21:32:03.079Z,1.81
2018-12-14T21:34:51.074Z,1.75
2018-12-14T21:37:38.521Z,1.73
2018-12-14T21:40:25.840Z,1.71
2018-12-14T21:43:14.586Z,1.70
2018-12-14T21:46:01.974Z,1.69
2018-12-14T21:48:50.538Z,1.69
2018-12-14T21:51:37.660Z,1.69
2018-12-14T21:54:25.265Z,2.45
2018-12-14T21:57:15.548Z,1.97
2018-12-14T22:00:04.704Z,1.87
2018-12-14T22:02:53.089Z,1.84
2018-12-14T22:05:40.277Z,1.82
2018-12-14T22:08:30.033Z,1.81
2018-12-14T22:11:16.937Z,1.79
2018-12-14T22:14:04.351Z,2.53
2018-12-14T22:16:51.858Z,2.78
2018-12-14T22:19:41.205Z,2.14
2018-12-14T22:22:28.728Z,2.77
2018-12-14T22:25:16.310Z,2.91
2018-12-14T22:28:03.719Z,2.25
2018-12-14T22:30:51.107Z,2.09
2018-12-14T22:33:38.290Z,2.04
2018-12-14T22:36:25.965Z,2.72
2018-12-14T22:39:15.931Z,2.13
2018-12-14T22:42:03.507Z,2.03
2018-12-14T22:44:51.125Z,1.92
2018-12-14T22:47:38.413Z,1.85
2018-12-14T22:50:25.932Z,1.80
2018-12-14T22:53:15.776Z,1.80
2018-12-14T22:56:02.942Z,1.77
2018-12-14T22:58:52.095Z,1.73
2018-12-14T23:01:39.394Z,1.73
2018-12-14T23:04:26.873Z,1.73
2018-12-14T23:07:14.090Z,1.70
2018-12-14T23:10:01.841Z,1.68
2018-12-14T23:12:50.965Z,1.64
2018-12-14T23:15:39.370Z,1.66
2018-12-14T23:18:26.919Z,1.65
2018-12-14T23:24:22.946Z,1.63
2018-12-14T23:27:10.886Z,1.63
2018-12-14T23:29:58.807Z,1.62
2018-12-14T23:32:46.084Z,1.62
2018-12-14T23:35:35.295Z,1.61
2018-12-14T23:38:24.696Z,1.59
2018-12-14T23:41:12.600Z,1.58
2018-12-14T23:44:00.844Z,1.58
2018-12-14T23:46:48.778Z,1.54
2018-12-14T23:49:39.589Z,1.54
2018-12-14T23:52:23.753Z,1.52
2018-12-14T23:55:10.491Z,1.51
2018-12-14T23:57:57.794Z,1.51
